Etusivu
METAR-TAF:

METAR-TAF

Lentoasemat :

Kajaanin lentoasema

Kajaani, Suomi

Leveyspiiri: 64-17N, Pituuspiiri: 027-41E, korkeus merenpinnasta: 143 m

Tämänhetkinen sää

Tämä raportti tehtiin 11 minuuttia sitten, kello 22.50 UTC
Tuuli 2 kn idästä/kaakosta
Lämpötila 4°C
Kosteus 87%
Ilmanpaine 1028 hPa
Näkyvyys 10 km tai enemmän
ei pilviä alle 1500 m:ssä eikä cumulonimbus-pilviä

METAR: EFKI 242250Z AUTO 11002KT CAVOK 04/02 Q1028

Aika: 02:01 (23:01 UTC)

Sääennuste

Tämä raportti tehtiin 8 tuntia ja 35 minuuttia sitten, kello 14.26 UTC
Ennuste voimassa 24. päivästä klo 15 UTC - 24. päivään klo 21 UTC
Tuuli 6 kn lännestä/luoteesta
Näkyvyys 10 km tai enemmän
ei pilviä alle 1500 m:ssä eikä cumulonimbus-pilviä

TAF: EFKI 241426Z 2415/2421 29006KT CAVOK

Säähavainnot ja -ennusteet yli 4000 lentoasemalta (METAR- ja TAF-raportit).

Käytössä olevat sääasemat on merkitty karttaan keltaisilla ja punaisilla pisteillä.

Aseta hiiri pisteen päälle nähdäksesi sääaseman nimen.

Klikkaa sitten nähdäksesi säähavainnot ja -ennusteet.

Kartan vaihtaminen: klikkaa mustalla rastilla varustettuja vihreitä pisteitä, niin voit zoomata sisään; viivalla varustettua vihreää pistettä, niin voit zoomata ulos tai vihreitä nuolia, niin pääset viereisille kartoille.


METAR-TAF: